Marshall, Texas
Current Conditions -  °F | °C
As of 4:35 PM on Monday 26 Jan 2015 (Local Time) from KASL Reporting Station
Clear Clear  
Wind Chill: 68°   Ceiling: Unl
Heat Index: 68°   Visibility: 10mi
Dew Point: 35°   Wind: 8mph
Humidity: 29%   Direction: 230°SW
Pressure: 30.08"   Gusts: NA
Location:  32.55°N, 94.35°W
Report Text: KASL 262235Z AUTO 23007KT 10SM CLR 20/02 A3008 RMK AO1 T02020016
Loading
Personal Weather Stations






























Interactive Weather Map New forecast layout! Learn more

10-Day Weather Forecast

Advertisements
Track Severe Weather on mobile